createdAt,value
2023-02-03T00:00:10.190Z,6.15
2023-02-03T00:02:38.143Z,6.18
2023-02-03T00:05:09.185Z,6.23
2023-02-03T00:07:39.100Z,6.17
2023-02-03T00:10:08.514Z,6.18
2023-02-03T00:12:36.755Z,6.16
2023-02-03T00:15:05.964Z,6.29
2023-02-03T00:17:33.922Z,6.22
2023-02-03T00:20:02.230Z,6.30
2023-02-03T00:22:32.178Z,6.32
2023-02-03T00:25:00.363Z,6.32
2023-02-03T00:27:28.736Z,6.24
2023-02-03T00:29:57.078Z,6.36
2023-02-03T00:32:25.383Z,6.29
2023-02-03T00:34:53.600Z,6.30
2023-02-03T00:37:23.568Z,6.37
2023-02-03T00:39:53.055Z,6.30
2023-02-03T00:42:20.937Z,6.32
2023-02-03T00:44:49.676Z,6.35
2023-02-03T00:47:17.672Z,6.30
2023-02-03T00:49:45.709Z,6.31
2023-02-03T00:52:14.500Z,6.29
2023-02-03T00:54:42.848Z,6.27
2023-02-03T00:57:12.071Z,6.36
2023-02-03T00:59:40.861Z,6.29
2023-02-03T01:02:08.868Z,6.33
2023-02-03T01:04:36.817Z,6.38
2023-02-03T01:07:05.433Z,6.35
2023-02-03T01:09:35.180Z,6.33
2023-02-03T01:12:03.132Z,6.30
2023-02-03T01:14:33.582Z,6.32
2023-02-03T01:17:02.194Z,6.30
2023-02-03T01:19:30.114Z,6.26
2023-02-03T01:21:58.034Z,6.22
2023-02-03T01:24:25.912Z,6.18
2023-02-03T01:26:54.211Z,6.20
2023-02-03T01:29:22.565Z,6.15
2023-02-03T01:31:52.408Z,6.14
2023-02-03T01:34:20.979Z,6.16
2023-02-03T01:36:48.821Z,6.17
2023-02-03T01:39:17.180Z,6.14
2023-02-03T01:41:45.642Z,6.18
2023-02-03T01:44:41.099Z,6.21
2023-02-03T01:47:18.600Z,6.14
2023-02-03T01:49:50.979Z,6.16
2023-02-03T01:52:19.879Z,6.22
2023-02-03T01:54:51.459Z,6.14
2023-02-03T01:57:24.503Z,6.23
2023-02-03T01:59:55.107Z,6.18
2023-02-03T02:02:24.892Z,6.13
2023-02-03T02:04:57.881Z,6.12
2023-02-03T02:07:26.865Z,6.08
2023-02-03T02:09:56.683Z,6.07
2023-02-03T02:12:24.730Z,6.09
2023-02-03T02:14:53.441Z,6.09
2023-02-03T02:17:53.150Z,6.13
2023-02-03T02:20:47.600Z,6.11
2023-02-03T02:23:54.976Z,6.07
2023-02-03T02:26:55.235Z,6.08
2023-02-03T02:29:54.927Z,6.02
2023-02-03T02:32:36.720Z,6.01
2023-02-03T02:35:16.878Z,5.96
2023-02-03T02:37:52.758Z,5.98
2023-02-03T02:40:27.179Z,5.96
2023-02-03T02:43:10.231Z,5.99
2023-02-03T02:45:49.268Z,5.94
2023-02-03T02:48:24.707Z,5.97
2023-02-03T02:50:56.938Z,5.98
2023-02-03T02:53:28.194Z,5.95
2023-02-03T02:55:59.341Z,5.92
2023-02-03T02:58:30.582Z,5.99
2023-02-03T03:00:59.703Z,5.94
2023-02-03T03:03:29.249Z,5.96
2023-02-03T03:06:01.170Z,5.94
2023-02-03T03:08:35.317Z,5.95
2023-02-03T03:11:04.816Z,5.96
2023-02-03T03:13:38.267Z,5.92
2023-02-03T03:16:09.162Z,5.96
2023-02-03T03:18:44.492Z,5.92
2023-02-03T03:21:18.306Z,5.98
2023-02-03T03:23:51.454Z,5.97
2023-02-03T03:26:25.206Z,5.93
2023-02-03T03:29:04.271Z,5.94
2023-02-03T03:31:32.683Z,5.96
2023-02-03T03:34:02.337Z,5.96
2023-02-03T03:36:34.626Z,5.97
2023-02-03T03:39:06.844Z,6.00
2023-02-03T03:41:43.393Z,5.98
2023-02-03T03:44:16.297Z,5.99
2023-02-03T03:46:50.463Z,5.98
2023-02-03T03:49:21.523Z,6.20
2023-02-03T03:51:53.766Z,6.13
2023-02-03T03:54:25.107Z,6.06
2023-02-03T03:56:58.559Z,6.04
2023-02-03T03:59:30.160Z,6.05
2023-02-03T04:02:05.273Z,6.07
2023-02-03T04:04:37.655Z,6.10
2023-02-03T04:07:06.474Z,6.15
2023-02-03T04:09:36.635Z,6.12
2023-02-03T04:12:06.257Z,6.10
2023-02-03T04:14:39.077Z,6.13
2023-02-03T04:17:07.463Z,6.08
2023-02-03T04:19:36.829Z,6.07
2023-02-03T04:22:04.764Z,6.06
2023-02-03T04:24:32.674Z,6.04
2023-02-03T04:27:00.516Z,6.02
2023-02-03T04:29:28.532Z,6.03
2023-02-03T04:31:56.804Z,5.98
2023-02-03T04:34:24.733Z,6.00
2023-02-03T04:36:54.617Z,5.96
2023-02-03T04:39:22.974Z,5.92
2023-02-03T04:41:50.867Z,5.93
2023-02-03T04:44:19.169Z,5.90
2023-02-03T04:46:47.015Z,5.89
2023-02-03T04:49:14.912Z,5.88
2023-02-03T04:51:44.743Z,5.85
2023-02-03T04:54:14.107Z,5.85
2023-02-03T04:56:42.434Z,5.88
2023-02-03T04:59:10.627Z,5.83
2023-02-03T05:01:38.626Z,5.83
2023-02-03T05:04:06.533Z,5.80
2023-02-03T05:06:36.172Z,5.74
2023-02-03T05:09:04.240Z,5.74
2023-02-03T05:11:33.906Z,5.70
2023-02-03T05:14:02.061Z,5.66
2023-02-03T05:16:29.989Z,5.73
2023-02-03T05:18:57.892Z,5.67
2023-02-03T05:21:26.284Z,5.66
2023-02-03T05:23:54.212Z,5.63
2023-02-03T05:26:22.220Z,5.65
2023-02-03T05:28:53.458Z,5.61
2023-02-03T05:31:21.896Z,5.64
2023-02-03T05:33:50.189Z,5.59
2023-02-03T05:36:18.730Z,5.58
2023-02-03T05:38:46.824Z,5.57
2023-02-03T05:41:32.762Z,5.64
2023-02-03T05:44:02.126Z,5.60
2023-02-03T05:46:30.185Z,5.60
2023-02-03T05:48:58.694Z,5.66
2023-02-03T05:51:26.651Z,5.63
2023-02-03T05:53:54.712Z,5.60
2023-02-03T05:56:24.468Z,5.69
2023-02-03T05:58:53.514Z,5.68
2023-02-03T06:01:22.949Z,5.64
2023-02-03T06:03:51.320Z,5.63
2023-02-03T06:06:19.711Z,5.60
2023-02-03T06:08:47.725Z,5.66
2023-02-03T06:11:16.263Z,5.65
2023-02-03T06:13:44.231Z,5.64
2023-02-03T06:16:12.889Z,5.63
2023-02-03T06:18:43.072Z,5.63
2023-02-03T06:21:11.352Z,5.66
2023-02-03T06:23:39.617Z,5.59
2023-02-03T06:26:08.065Z,5.59
2023-02-03T06:28:38.193Z,5.58
2023-02-03T06:31:07.295Z,5.59
2023-02-03T06:33:35.851Z,5.55
2023-02-03T06:36:06.081Z,5.56
2023-02-03T06:38:33.998Z,5.56
2023-02-03T06:41:02.173Z,5.57
2023-02-03T06:43:30.157Z,5.61
2023-02-03T06:45:58.329Z,5.60
2023-02-03T06:48:26.920Z,5.58
2023-02-03T06:50:55.817Z,5.61
2023-02-03T06:53:25.180Z,5.56
2023-02-03T06:55:53.711Z,5.60
2023-02-03T06:58:21.974Z,5.61
2023-02-03T07:00:51.509Z,5.61
2023-02-03T07:03:19.836Z,5.59
2023-02-03T07:05:47.910Z,5.65
2023-02-03T07:08:15.917Z,5.60
2023-02-03T07:10:46.062Z,5.63
2023-02-03T07:13:14.146Z,5.61
2023-02-03T07:15:42.271Z,5.65
2023-02-03T07:18:11.823Z,5.63
2023-02-03T07:20:41.092Z,5.64
2023-02-03T07:23:09.984Z,5.64
2023-02-03T07:25:38.591Z,5.64
2023-02-03T07:28:08.142Z,5.59
2023-02-03T07:30:36.235Z,5.60
2023-02-03T07:33:04.828Z,5.68
2023-02-03T07:35:33.061Z,5.63
2023-02-03T07:38:01.880Z,5.69
2023-02-03T07:40:30.658Z,5.67
2023-02-03T07:42:59.898Z,5.64
2023-02-03T07:45:29.331Z,5.68
2023-02-03T07:47:57.993Z,5.68
2023-02-03T07:50:26.413Z,5.64
2023-02-03T07:52:55.665Z,5.60
2023-02-03T07:55:24.813Z,5.61
2023-02-03T07:57:54.896Z,5.64
2023-02-03T08:00:23.332Z,5.69
2023-02-03T08:02:53.587Z,5.66
2023-02-03T08:05:21.988Z,5.63
2023-02-03T08:07:49.979Z,5.65
2023-02-03T08:10:18.444Z,5.67
2023-02-03T08:12:47.143Z,5.66
2023-02-03T08:15:17.370Z,5.70
2023-02-03T08:17:46.735Z,5.68
2023-02-03T08:20:16.635Z,5.65
2023-02-03T08:22:45.110Z,5.65
2023-02-03T08:25:14.391Z,5.72
2023-02-03T08:27:43.011Z,5.70
2023-02-03T08:30:14.760Z,5.76
2023-02-03T08:32:43.273Z,5.80
2023-02-03T08:35:11.627Z,5.73
2023-02-03T08:37:41.252Z,5.74
2023-02-03T08:40:11.422Z,5.79
2023-02-03T08:42:39.522Z,5.67
2023-02-03T08:45:08.754Z,5.68
2023-02-03T08:47:39.819Z,5.66
2023-02-03T08:50:09.885Z,5.63
2023-02-03T08:52:38.244Z,5.72
2023-02-03T08:55:08.952Z,5.72
2023-02-03T08:57:38.043Z,5.75
2023-02-03T09:00:07.382Z,5.70
2023-02-03T09:02:35.950Z,5.74
2023-02-03T09:05:04.277Z,5.80
2023-02-03T09:07:32.855Z,5.80
2023-02-03T09:10:01.232Z,5.82
2023-02-03T09:12:30.771Z,5.81
2023-02-03T09:14:59.271Z,5.92
2023-02-03T09:17:28.752Z,5.94
2023-02-03T09:19:56.821Z,5.97
2023-02-03T09:22:24.898Z,5.99
2023-02-03T09:24:53.286Z,6.03
2023-02-03T09:27:21.441Z,6.16
2023-02-03T09:29:50.882Z,6.17
2023-02-03T09:32:19.287Z,6.21
2023-02-03T09:34:47.418Z,6.20
2023-02-03T09:37:15.449Z,6.31
2023-02-03T09:39:44.123Z,6.31
2023-02-03T09:42:38.549Z,6.35
2023-02-03T09:45:20.125Z,6.36
2023-02-03T09:47:54.091Z,6.39
2023-02-03T09:50:24.542Z,6.38
2023-02-03T09:52:54.104Z,6.41
2023-02-03T09:55:31.153Z,6.38
2023-02-03T09:58:05.264Z,6.50
2023-02-03T10:00:38.712Z,6.45
2023-02-03T10:03:14.567Z,6.52
2023-02-03T10:05:53.711Z,6.59
2023-02-03T10:08:31.316Z,6.64
2023-02-03T10:11:12.797Z,6.67
2023-02-03T10:14:03.807Z,6.82
2023-02-03T10:16:50.949Z,7.01
2023-02-03T10:19:23.604Z,7.08
2023-02-03T10:21:55.774Z,7.10
2023-02-03T10:24:28.929Z,7.14
2023-02-03T10:26:58.333Z,7.11
2023-02-03T10:29:33.377Z,7.15
2023-02-03T10:32:03.744Z,7.23
2023-02-03T10:34:32.128Z,7.20
2023-02-03T10:37:04.982Z,7.23
2023-02-03T10:39:44.795Z,7.28
2023-02-03T10:42:15.236Z,7.24
2023-02-03T10:44:46.310Z,7.25
2023-02-03T10:47:30.165Z,7.15
2023-02-03T10:50:00.392Z,7.11
2023-02-03T10:52:32.353Z,7.13
2023-02-03T10:55:07.498Z,7.19
2023-02-03T10:57:39.766Z,7.25
2023-02-03T11:00:22.621Z,7.19
2023-02-03T11:03:00.893Z,7.23
2023-02-03T11:05:29.369Z,7.18
2023-02-03T11:07:57.364Z,7.24
2023-02-03T11:10:36.355Z,7.37
2023-02-03T11:13:22.706Z,7.42
2023-02-03T11:15:57.413Z,7.46
2023-02-03T11:18:38.231Z,7.47
2023-02-03T11:21:12.493Z,7.50
2023-02-03T11:23:47.667Z,7.51
2023-02-03T11:26:17.646Z,7.44
2023-02-03T11:28:49.052Z,7.55
2023-02-03T11:31:22.008Z,7.51
2023-02-03T11:33:55.957Z,7.48
2023-02-03T11:36:27.735Z,7.54
2023-02-03T11:39:18.800Z,7.53
2023-02-03T11:41:47.723Z,7.57
2023-02-03T11:44:26.184Z,7.62
2023-02-03T11:46:59.049Z,7.59
2023-02-03T12:03:19.486Z,7.61
2023-02-03T12:06:02.244Z,7.59
2023-02-03T12:08:46.510Z,7.59
2023-02-03T12:11:28.952Z,7.56
2023-02-03T12:14:23.805Z,7.58
2023-02-03T12:17:09.288Z,7.61
2023-02-03T12:19:51.425Z,7.58
2023-02-03T12:22:29.199Z,7.64
2023-02-03T12:25:08.399Z,7.61
2023-02-03T12:27:49.900Z,7.67
2023-02-03T12:30:24.858Z,7.72
2023-02-03T12:32:56.502Z,7.71
2023-02-03T12:35:34.257Z,7.74
2023-02-03T12:38:06.622Z,7.72
2023-02-03T12:40:40.764Z,7.71
2023-02-03T12:43:22.572Z,7.64
2023-02-03T12:45:56.369Z,7.75
2023-02-03T12:48:29.144Z,7.71
2023-02-03T12:51:03.658Z,7.69
2023-02-03T12:53:35.972Z,7.68
2023-02-03T12:56:11.235Z,7.71
2023-02-03T12:58:43.276Z,7.70
2023-02-03T13:01:16.341Z,7.76
2023-02-03T13:03:52.432Z,7.73
2023-02-03T13:06:28.338Z,7.71
2023-02-03T13:09:02.614Z,7.68
2023-02-03T13:11:37.129Z,7.67
2023-02-03T13:14:15.481Z,7.64
2023-02-03T13:16:47.452Z,7.64
2023-02-03T13:19:21.892Z,7.67
2023-02-03T13:21:53.248Z,7.63
2023-02-03T13:24:24.860Z,7.64
2023-02-03T13:27:15.212Z,7.63
2023-02-03T13:29:59.513Z,7.62
2023-02-03T13:32:51.453Z,7.64
2023-02-03T13:35:36.425Z,7.66
2023-02-03T13:38:24.931Z,7.69
2023-02-03T13:41:02.403Z,7.73
2023-02-03T13:43:38.521Z,7.68
2023-02-03T13:46:20.061Z,7.70
2023-02-03T13:48:53.055Z,7.69
2023-02-03T13:51:24.081Z,7.66
2023-02-03T13:54:00.014Z,7.69
2023-02-03T13:56:29.510Z,7.72
2023-02-03T13:59:06.308Z,7.70
2023-02-03T14:01:38.556Z,7.67
2023-02-03T14:04:09.222Z,7.71
2023-02-03T14:07:02.289Z,7.68
2023-02-03T14:10:15.014Z,7.66
2023-02-03T14:13:00.301Z,7.69
2023-02-03T14:15:34.642Z,7.66
2023-02-03T14:18:21.411Z,7.68
2023-02-03T14:21:11.151Z,7.71
2023-02-03T14:23:45.620Z,7.72
2023-02-03T14:26:23.522Z,7.62
2023-02-03T14:28:53.855Z,7.68
2023-02-03T14:31:23.069Z,7.70
2023-02-03T14:34:15.433Z,7.68
2023-02-03T14:36:55.163Z,7.67
2023-02-03T14:39:56.862Z,7.68
2023-02-03T14:43:04.898Z,7.73
2023-02-03T14:46:09.252Z,7.70
2023-02-03T14:49:04.502Z,7.72
2023-02-03T14:51:45.157Z,7.71
2023-02-03T14:54:33.288Z,7.69
2023-02-03T14:57:18.894Z,7.69
2023-02-03T14:59:50.902Z,7.70
2023-02-03T15:02:23.619Z,7.71
2023-02-03T15:04:53.761Z,7.69
2023-02-03T15:07:39.203Z,7.68
2023-02-03T15:10:15.090Z,7.69
2023-02-03T15:12:47.875Z,7.69
2023-02-03T15:15:22.241Z,7.68
2023-02-03T15:17:50.951Z,7.68
2023-02-03T15:20:29.071Z,7.67
2023-02-03T15:22:57.458Z,7.68
2023-02-03T15:25:27.460Z,7.69
2023-02-03T15:27:56.117Z,7.69
2023-02-03T15:30:28.650Z,7.71
2023-02-03T15:33:06.830Z,7.67
2023-02-03T15:35:38.064Z,7.67
2023-02-03T15:38:09.460Z,7.62
2023-02-03T15:40:44.420Z,7.64
2023-02-03T15:43:18.776Z,7.62
2023-02-03T15:46:00.821Z,7.61
2023-02-03T15:48:39.135Z,7.57
2023-02-03T15:51:17.084Z,7.63
2023-02-03T15:53:54.512Z,7.60
2023-02-03T15:56:27.189Z,7.63
2023-02-03T15:58:55.561Z,7.55
2023-02-03T16:01:28.625Z,7.48
2023-02-03T16:03:58.833Z,7.42
2023-02-03T16:06:35.915Z,7.36
2023-02-03T16:09:08.198Z,7.35
2023-02-03T16:11:38.492Z,7.32
2023-02-03T16:14:08.260Z,7.32
2023-02-03T16:16:49.397Z,7.26
2023-02-03T16:19:24.466Z,7.26
2023-02-03T16:21:55.727Z,7.24
2023-02-03T16:24:38.796Z,7.19
2023-02-03T16:27:33.305Z,7.11
2023-02-03T16:30:39.965Z,7.14
2023-02-03T16:33:33.991Z,7.14
2023-02-03T16:36:33.941Z,7.16
2023-02-03T16:39:22.459Z,7.13
2023-02-03T16:42:07.657Z,7.04
2023-02-03T16:44:53.778Z,7.12
2023-02-03T16:47:45.116Z,7.09
2023-02-03T16:50:39.672Z,7.04
2023-02-03T16:53:14.405Z,7.10
2023-02-03T16:55:43.091Z,7.09
2023-02-03T16:58:12.491Z,7.11
2023-02-03T17:00:41.850Z,7.08
2023-02-03T17:03:12.790Z,7.16
2023-02-03T17:05:44.589Z,7.17
2023-02-03T17:08:13.832Z,7.19
2023-02-03T17:10:43.751Z,7.13
2023-02-03T17:13:13.016Z,7.11
2023-02-03T17:15:43.617Z,7.17
2023-02-03T17:18:12.008Z,7.17
2023-02-03T17:20:43.048Z,7.11
2023-02-03T17:23:13.903Z,7.05
2023-02-03T17:25:42.163Z,7.24
2023-02-03T17:28:12.951Z,7.18
2023-02-03T17:30:41.264Z,7.21
2023-02-03T17:33:12.391Z,7.22
2023-02-03T17:35:42.781Z,7.25
2023-02-03T17:38:14.428Z,7.27
2023-02-03T17:54:41.518Z,7.26
2023-02-03T17:57:10.224Z,7.30
2023-02-03T17:59:39.741Z,7.30
2023-02-03T18:02:07.886Z,7.36
2023-02-03T18:04:36.643Z,7.32
2023-02-03T18:07:04.751Z,7.36
2023-02-03T18:09:33.138Z,7.34
2023-02-03T18:12:02.648Z,7.36
2023-02-03T18:14:30.847Z,7.34
2023-02-03T18:16:58.964Z,7.37
2023-02-03T18:19:27.289Z,7.38
2023-02-03T18:21:55.312Z,7.34
2023-02-03T18:24:28.349Z,7.35
2023-02-03T18:26:56.804Z,7.32
2023-02-03T18:29:26.995Z,7.31
2023-02-03T18:31:56.165Z,7.28
2023-02-03T18:34:25.190Z,7.22
2023-02-03T18:36:53.146Z,7.23
2023-02-03T18:39:21.817Z,7.21
2023-02-03T18:41:49.894Z,7.23
2023-02-03T18:44:18.256Z,7.20
2023-02-03T18:47:31.593Z,7.17
2023-02-03T18:50:43.190Z,7.15
2023-02-03T18:53:33.009Z,7.11
2023-02-03T18:57:07.788Z,7.10
2023-02-03T18:59:52.122Z,7.08
2023-02-03T19:03:13.653Z,7.06
2023-02-03T19:09:31.277Z,7.09
2023-02-03T19:12:45.731Z,7.04
2023-02-03T19:19:38.971Z,7.10
2023-02-03T19:23:25.563Z,7.07
2023-02-03T20:26:55.956Z,6.96
2023-02-03T21:19:13.192Z,7.27
2023-02-03T21:22:47.914Z,7.27
2023-02-03T21:26:26.153Z,7.32
2023-02-03T21:29:23.953Z,7.32
2023-02-03T21:36:50.717Z,7.23
2023-02-03T23:04:47.069Z,7.31
2023-02-03T23:07:15.542Z,7.32
2023-02-03T23:09:43.406Z,7.34
2023-02-03T23:12:11.370Z,7.35
2023-02-03T23:14:39.329Z,7.33
2023-02-03T23:17:07.232Z,7.35
2023-02-03T23:19:35.596Z,7.31
2023-02-03T23:22:04.917Z,7.36
2023-02-03T23:24:32.778Z,7.33
2023-02-03T23:27:00.756Z,7.35
2023-02-03T23:29:29.272Z,7.41
2023-02-03T23:31:57.200Z,7.39
2023-02-03T23:34:43.428Z,7.46
2023-02-03T23:37:12.714Z,7.41
2023-02-03T23:39:40.612Z,7.46
2023-02-03T23:42:08.926Z,7.46
2023-02-03T23:44:36.851Z,7.40
2023-02-03T23:47:04.792Z,7.40
2023-02-03T23:49:33.104Z,7.43
2023-02-03T23:52:00.974Z,7.37
2023-02-03T23:54:30.235Z,7.42
2023-02-03T23:56:58.650Z,7.40
2023-02-03T23:59:26.530Z,7.46
